Terminal Aerodrome Forecast
Issued by NWS

Home | Current Version | Previous Version | Text Only | Print | Product List | Glossary On
Versions: 1 2 3 4 5 6 7 8 9 10 11 12 13 14 15 16 17 18 19 20 21 22 23 24 25 26 27
634
FTUS42 KILM 010737 AAA
TAFCRE
TAF AMD
KCRE 010737Z 0108/0206 11005KT P6SM SCT008 BKN022 OVC027
     FM010900 15008KT P6SM OVC006
     FM011500 18012KT P6SM OVC050
     FM012200 20012KT P6SM VCSH SCT035 BKN050
     FM020100 21012KT P6SM BKN250=

USA.gov is the U.S. government's official web portal to all federal, state and local government web resources and services.